Airfield :
LOGIN :

Register | Disclaimer

   EN    FR    IT 

 










Legend :    VFR   Marginal VFR   IFR   Intensive IFR   Very Intensive IFR
Visi :
Ceiling :
>= 8 km
>= 3000ft
5 to 8 km
1000 to 3000 ft
1500m to 5 km
500 to 1000 ft
800 to 1500m
200 to 500 ft
< 800m
< 200 ft
Symbols :   Thunderstorms  Fog  Heavy snow  Heavy precipitations  Wind > 20 kt
SIGMETs :     Misc.  Thunderstorms  Icing  Turbulence  Mountain Waves  Volcanic Ashes






- Airport Elevation : 126 ft
- IATA code : WIC


EGPC - Wick

CURRENT METAR :
  • 170750Z 15010KT 9999 VCSH FEW004 14/13 Q1006

EXPIRED METARs :
  • 170720Z 14011KT 9999 FEW008 14/13 Q1006
  • 170650Z 15009KT 9999 FEW008 14/13 Q1006
  • 170620Z AUTO 15011KT 9999 NCD 14/13 Q1006
  • 170550Z AUTO 14008KT 9999 NCD 14/13 Q1007
  • 170520Z AUTO 14008KT 9999 NCD 14/13 Q1007
  • 170450Z AUTO 14007KT 9999 NCD 14/13 Q1007

TAF TAF EGPC
Valid from the 17 at 06:00 until the 17 at 15:00 UTC


170458Z 1706/1715 14010KT 9999 FEW040
TEMPO 1706/1715 16018G30KT 8000 -RA
PROB40
TEMPO 1706/1709 4000 RA
ATIS : +44 1955 607 596



MET'MAP, your aeronautical weather chart ! - Copyright ORBIFLY December 2007 - Disclaimer

ORBIFLY MET'MAP TEAM :

Programming & Development : Alexandra Zaïnal
Concept & original design : Baudouin d'Aumeries
Assistance for programming : Marc-Olivier Méhu
Technical & hardware support : Manuel Goepfert

Contact : metmap@orbifly.com




SOURCES & CREDITS :

   NOAA